Time;durP1;ratioP1;P1;durP2;ratioP2;P2;SDS_P1;SDS_P2;PMS_P1;PMS_P2;Temp;Humidity;BMP_temperature;BMP_pressure;BME280_temperature;BME280_humidity;BME280_pressure;Samples;Min_cycle;Max_cycle;Signal;HPM_P1;HPM_P2
2023/04/18 00:00:41;;;;;;;27.08;24.48;;;5.50;99.90;;;;;;4951503;28;20420;-73
2023/04/18 00:03:08;;;;;;;28.10;25.50;;;5.40;99.90;;;;;;4962330;28;20053;-72
2023/04/18 00:05:35;;;;;;;26.95;24.40;;;5.40;99.90;;;;;;4976420;23;20177;-73
2023/04/18 00:08:02;;;;;;;25.98;23.48;;;5.40;99.90;;;;;;4993215;28;20046;-73
2023/04/18 00:10:29;;;;;;;26.20;23.60;;;5.40;99.90;;;;;;4992482;28;20136;-73
2023/04/18 00:12:57;;;;;;;26.95;24.13;;;5.50;99.90;;;;;;4997618;28;20057;-73
2023/04/18 00:15:24;;;;;;;27.95;24.90;;;5.40;99.90;;;;;;4993821;28;20495;-73
2023/04/18 00:17:55;;;;;;;26.48;23.98;;;5.40;99.90;;;;;;4988879;28;20069;-73
2023/04/18 00:20:25;;;;;;;27.85;24.95;;;5.30;99.90;;;;;;4986812;28;20046;-73
2023/04/18 00:22:53;;;;;;;26.67;23.92;;;5.30;99.90;;;;;;4969665;28;20057;-73
2023/04/18 00:25:20;;;;;;;27.20;24.38;;;5.30;99.90;;;;;;4991515;28;20112;-73
2023/04/18 00:27:47;;;;;;;26.77;24.20;;;5.30;99.90;;;;;;4989963;28;20133;-73
2023/04/18 00:30:14;;;;;;;26.85;24.35;;;5.30;99.90;;;;;;4991619;28;20046;-73
2023/04/18 00:32:40;;;;;;;27.85;25.00;;;5.30;99.90;;;;;;4991535;28;20038;-73
2023/04/18 00:35:07;;;;;;;25.08;22.77;;;5.30;99.90;;;;;;4993134;28;20327;-73
2023/04/18 00:37:34;;;;;;;27.08;24.33;;;5.30;99.90;;;;;;4986161;28;20052;-73
2023/04/18 00:40:01;;;;;;;27.35;24.67;;;5.40;99.90;;;;;;4991704;28;20037;-73
2023/04/18 00:42:28;;;;;;;24.20;22.00;;;5.40;99.90;;;;;;4993698;28;20120;-73
2023/04/18 00:44:55;;;;;;;25.38;23.10;;;5.40;99.90;;;;;;4986924;28;20104;-73
2023/04/18 00:47:21;;;;;;;25.75;23.35;;;5.40;99.90;;;;;;4993962;28;20580;-73
2023/04/18 00:49:48;;;;;;;26.60;24.08;;;5.40;99.90;;;;;;4987317;28;20045;-73
2023/04/18 00:52:17;;;;;;;26.50;23.80;;;5.40;99.90;;;;;;4994633;28;20137;-73
2023/04/18 00:54:44;;;;;;;27.88;25.17;;;5.40;99.90;;;;;;4987490;28;20112;-74
2023/04/18 00:57:11;;;;;;;27.27;24.58;;;5.40;99.90;;;;;;4991686;28;20463;-73
2023/04/18 00:59:38;;;;;;;26.35;23.80;;;5.50;99.90;;;;;;4983416;28;20411;-73
2023/04/18 01:02:06;;;;;;;25.67;23.15;;;5.50;99.90;;;;;;4991623;28;20213;-73
2023/04/18 01:04:33;;;;;;;27.52;24.58;;;5.50;99.90;;;;;;4994223;28;20185;-73
2023/04/18 01:07:01;;;;;;;25.25;22.80;;;5.50;99.90;;;;;;4990071;28;20940;-73
2023/04/18 01:09:28;;;;;;;26.77;24.08;;;5.50;99.90;;;;;;4991293;28;20084;-73
2023/04/18 01:11:55;;;;;;;27.52;24.67;;;5.50;99.90;;;;;;4985568;28;20065;-74
2023/04/18 01:14:22;;;;;;;24.73;22.27;;;5.60;99.90;;;;;;4993575;28;20049;-73
2023/04/18 01:16:49;;;;;;;27.25;24.45;;;5.60;99.90;;;;;;4992189;28;20157;-73
2023/04/18 01:19:18;;;;;;;28.67;25.58;;;5.60;99.90;;;;;;4978590;28;20052;-73
2023/04/18 01:21:45;;;;;;;26.35;23.75;;;5.60;99.90;;;;;;4989452;28;20192;-73
2023/04/18 01:24:16;;;;;;;28.13;24.38;;;5.60;99.90;;;;;;4995186;28;20442;-73
2023/04/18 01:26:48;;;;;;;25.55;23.00;;;5.60;99.90;;;;;;4992354;28;20540;-73
2023/04/18 01:29:15;;;;;;;26.17;23.65;;;5.60;99.90;;;;;;4994074;28;20049;-74
2023/04/18 01:31:42;;;;;;;25.15;22.60;;;5.60;99.90;;;;;;4987922;28;20069;-73
2023/04/18 01:34:09;;;;;;;26.52;23.92;;;5.50;99.90;;;;;;4971765;28;20057;-73
2023/04/18 01:36:37;;;;;;;26.15;23.70;;;5.60;99.90;;;;;;4989893;28;20053;-73
2023/04/18 01:39:04;;;;;;;26.63;24.02;;;5.60;99.90;;;;;;4973026;28;20069;-74
2023/04/18 01:41:31;;;;;;;27.45;24.67;;;5.60;99.90;;;;;;4995717;28;20042;-74
2023/04/18 01:43:58;;;;;;;27.67;24.75;;;5.60;99.90;;;;;;4974518;28;20080;-73
2023/04/18 01:46:25;;;;;;;27.73;24.90;;;5.60;99.90;;;;;;4992616;28;20062;-73
2023/04/18 01:48:52;;;;;;;28.65;25.95;;;5.60;99.90;;;;;;4992025;28;20046;-73
2023/04/18 01:51:20;;;;;;;27.05;24.17;;;5.60;99.90;;;;;;4998951;28;20098;-73
2023/04/18 01:53:47;;;;;;;28.08;25.48;;;5.60;99.90;;;;;;4993090;28;20038;-73
2023/04/18 01:56:13;;;;;;;27.83;24.90;;;5.60;99.90;;;;;;4994840;28;20045;-73
2023/04/18 01:58:40;;;;;;;27.88;25.08;;;5.50;99.90;;;;;;4990264;28;20140;-73
2023/04/18 02:01:07;;;;;;;30.48;27.27;;;5.50;99.90;;;;;;4994071;28;20052;-74
2023/04/18 02:03:34;;;;;;;29.00;25.90;;;5.50;99.90;;;;;;4998715;28;20116;-72
2023/04/18 02:06:02;;;;;;;29.98;26.77;;;5.50;99.90;;;;;;4975783;28;20041;-74
2023/04/18 02:08:31;;;;;;;29.48;26.23;;;5.50;99.90;;;;;;4996231;28;20085;-73
2023/04/18 02:11:00;;;;;;;30.50;26.50;;;5.40;99.90;;;;;;4972966;28;20704;-73
2023/04/18 02:13:27;;;;;;;30.05;26.92;;;5.40;99.90;;;;;;4994681;28;20038;-73
2023/04/18 02:15:53;;;;;;;30.35;27.10;;;5.40;99.90;;;;;;4993631;28;20577;-73
2023/04/18 02:18:23;;;;;;;29.08;25.60;;;5.40;99.90;;;;;;4993850;28;20052;-73
2023/04/18 02:20:50;;;;;;;31.83;27.75;;;5.30;99.90;;;;;;4975959;28;20049;-73
2023/04/18 02:23:17;;;;;;;31.73;27.00;;;5.30;99.90;;;;;;4998481;28;20034;-73
2023/04/18 02:25:44;;;;;;;32.75;28.45;;;5.40;99.90;;;;;;4976057;28;20038;-74
2023/04/18 02:28:11;;;;;;;31.33;26.85;;;5.40;99.90;;;;;;4992600;28;20104;-74
2023/04/18 02:30:38;;;;;;;33.72;28.80;;;5.40;99.90;;;;;;4985152;28;20324;-73
2023/04/18 02:33:05;;;;;;;36.88;30.27;;;5.40;99.90;;;;;;4995852;28;20057;-73
2023/04/18 02:35:31;;;;;;;35.40;29.20;;;5.40;99.90;;;;;;4994500;28;20141;-73
2023/04/18 02:37:58;;;;;;;33.22;28.77;;;5.40;99.90;;;;;;4994951;28;20583;-74
2023/04/18 02:40:25;;;;;;;37.70;30.42;;;5.50;99.90;;;;;;4994907;28;20049;-74
2023/04/18 02:42:51;;;;;;;37.42;28.25;;;5.50;99.90;;;;;;4994706;28;20344;-74
2023/04/18 02:45:18;;;;;;;37.58;29.48;;;5.50;99.90;;;;;;4995704;28;20033;-74
2023/04/18 02:47:45;;;;;;;37.72;30.70;;;5.50;99.90;;;;;;4992481;28;20049;-74
2023/04/18 02:50:22;;;;;;;35.75;29.17;;;5.50;99.90;;;;;;4996750;28;20128;-74
2023/04/18 02:52:49;;;;;;;31.27;27.25;;;5.40;99.90;;;;;;4993738;28;20108;-73
2023/04/18 02:55:18;;;;;;;36.67;29.55;;;5.50;99.90;;;;;;4998505;28;20500;-73
2023/04/18 02:57:45;;;;;;;37.25;30.00;;;5.50;99.90;;;;;;4989387;28;20041;-73
2023/04/18 03:00:30;;;;;;;;;;;5.60;99.90;;;;;;4992242;28;20139;-73
2023/04/18 03:03:07;;;;;;;33.72;26.35;;;5.70;99.90;;;;;;4997340;28;19976;-73
2023/04/18 03:05:39;;;;;;;35.00;26.38;;;5.70;99.90;;;;;;4996280;28;20061;-73
2023/04/18 03:08:06;;;;;;;34.83;26.58;;;5.70;99.90;;;;;;4985868;28;20038;-73
2023/04/18 03:10:34;;;;;;;34.78;27.50;;;5.70;99.90;;;;;;4994774;28;20048;-73
2023/04/18 03:13:02;;;;;;;35.50;27.67;;;5.60;99.90;;;;;;4993534;28;20058;-73
2023/04/18 03:15:32;;;;;;;35.35;28.15;;;5.60;99.90;;;;;;4994149;28;20046;-73
2023/04/18 03:17:59;;;;;;;39.88;30.15;;;5.70;99.90;;;;;;4993542;28;20308;-73
2023/04/18 03:20:30;;;;;;;36.65;28.40;;;5.70;99.90;;;;;;4984264;28;20558;-73
2023/04/18 03:22:56;;;;;;;36.75;27.75;;;5.70;99.90;;;;;;4993006;28;20053;-73
2023/04/18 03:25:25;;;;;;;30.83;23.58;;;5.70;99.90;;;;;;4992520;28;20329;-73
2023/04/18 03:27:52;;;;;;;31.85;26.42;;;5.70;99.90;;;;;;4994493;28;20069;-74
2023/04/18 03:30:21;;;;;;;36.85;27.50;;;5.70;99.90;;;;;;4993119;28;20060;-73
2023/04/18 03:32:54;;;;;;;35.78;28.10;;;5.70;99.90;;;;;;4993510;28;20417;-73
2023/04/18 03:35:21;;;;;;;38.75;29.73;;;5.70;99.90;;;;;;4992244;28;20052;-73
2023/04/18 03:37:49;;;;;;;40.90;30.05;;;5.70;99.90;;;;;;4977185;28;20504;-73
2023/04/18 03:40:29;;;;;;;37.92;28.17;;;5.70;99.90;;;;;;4990374;28;20063;-73
2023/04/18 03:43:01;;;;;;;40.42;29.20;;;5.70;99.90;;;;;;4984766;28;20072;-73
2023/04/18 03:45:28;;;;;;;39.85;29.50;;;5.70;99.90;;;;;;4994454;28;20037;-73
2023/04/18 03:47:55;;;;;;;44.53;32.00;;;5.70;99.90;;;;;;4992862;28;20041;-73
2023/04/18 03:50:24;;;;;;;47.17;33.65;;;5.70;99.90;;;;;;4992687;28;20046;-74
2023/04/18 03:52:53;;;;;;;51.35;33.10;;;5.70;99.90;;;;;;4985826;28;20127;-73
2023/04/18 03:55:20;;;;;;;48.50;32.05;;;5.80;99.90;;;;;;4992831;28;20045;-73
2023/04/18 03:57:47;;;;;;;50.78;33.85;;;5.80;99.90;;;;;;4976999;28;20526;-73
2023/04/18 04:00:22;;;;;;;;;;;5.70;99.90;;;;;;4993158;28;20496;-73
2023/04/18 04:02:56;;;;;;;54.72;31.08;;;5.70;99.90;;;;;;4991495;28;20454;-73
2023/04/18 04:05:23;;;;;;;50.53;34.50;;;5.70;99.90;;;;;;4991823;28;20041;-73
2023/04/18 04:07:50;;;;;;;49.63;33.33;;;5.70;99.90;;;;;;4989449;28;20092;-73
2023/04/18 04:10:17;;;;;;;55.00;35.53;;;5.70;99.90;;;;;;4987952;28;20128;-73
2023/04/18 04:12:44;;;;;;;56.63;35.88;;;5.60;99.90;;;;;;4990522;28;20068;-73
2023/04/18 04:15:11;;;;;;;50.83;33.03;;;5.70;99.90;;;;;;4990384;28;20168;-73
2023/04/18 04:17:44;;;;;;;47.63;29.63;;;5.70;99.90;;;;;;4993027;28;20393;-73
2023/04/18 04:20:11;;;;;;;54.25;34.15;;;5.70;99.90;;;;;;4991277;28;20677;-73
2023/04/18 04:22:38;;;;;;;54.97;33.65;;;5.60;99.90;;;;;;4995448;28;20038;-73
2023/04/18 04:25:06;;;;;;;54.30;33.58;;;5.60;99.90;;;;;;4989453;28;21360;-74
2023/04/18 04:27:37;;;;;;;55.42;35.25;;;5.50;99.90;;;;;;4977424;28;20096;-73
2023/04/18 04:30:07;;;;;;;55.85;30.63;;;5.70;99.90;;;;;;4996240;28;20127;-73
2023/04/18 04:32:34;;;;;;;56.28;34.28;;;5.60;99.90;;;;;;4993972;28;20065;-73
2023/04/18 04:35:01;;;;;;;57.40;34.63;;;5.60;99.90;;;;;;4990946;28;20085;-73
2023/04/18 04:37:28;;;;;;;61.95;34.63;;;5.60;99.90;;;;;;4993426;28;20389;-73
2023/04/18 04:40:18;;;;;;;53.35;30.17;;;5.60;99.90;;;;;;4983777;28;20045;-73
2023/04/18 04:42:53;;;;;;;62.77;33.33;;;5.60;99.90;;;;;;4992069;28;20042;-73
2023/04/18 04:45:25;;;;;;;59.63;32.05;;;5.50;99.90;;;;;;4990221;28;20292;-73
2023/04/18 04:47:52;;;;;;;59.95;31.05;;;5.50;99.90;;;;;;4977207;28;20046;-73
2023/04/18 04:50:20;;;;;;;58.47;31.65;;;5.50;99.90;;;;;;4994933;28;20125;-71
2023/04/18 04:52:47;;;;;;;65.30;32.97;;;5.50;99.90;;;;;;4995171;28;20065;-74
2023/04/18 04:55:14;;;;;;;57.05;31.88;;;5.50;99.90;;;;;;4989290;28;20049;-73
2023/04/18 04:57:43;;;;;;;60.33;33.30;;;5.60;99.90;;;;;;4991973;28;20088;-73
2023/04/18 05:00:36;;;;;;;56.28;32.95;;;5.60;99.90;;;;;;4993179;28;20053;-73
2023/04/18 05:03:02;;;;;;;56.72;32.13;;;5.60;99.90;;;;;;4989493;28;20061;-73
2023/04/18 05:05:29;;;;;;;50.72;30.05;;;5.60;99.90;;;;;;4991332;28;20038;-74
2023/04/18 05:07:56;;;;;;;52.03;27.02;;;5.60;99.90;;;;;;4987225;28;20050;-73
2023/04/18 05:10:22;;;;;;;53.72;30.52;;;5.60;99.90;;;;;;4993711;28;20196;-73
2023/04/18 05:12:49;;;;;;;59.35;31.73;;;5.50;99.90;;;;;;4990122;28;20065;-73
2023/04/18 05:15:17;;;;;;;60.50;29.02;;;5.50;99.90;;;;;;4993371;28;20420;-73
2023/04/18 05:17:43;;;;;;;51.13;29.35;;;5.50;99.90;;;;;;4990193;28;20042;-74
2023/04/18 05:20:11;;;;;;;52.45;30.98;;;5.50;99.90;;;;;;4990071;28;20158;-73
2023/04/18 05:22:37;;;;;;;55.20;32.22;;;5.50;99.90;;;;;;4996940;28;20050;-73
2023/04/18 05:25:04;;;;;;;47.55;29.48;;;5.50;99.90;;;;;;4990304;28;20330;-74
2023/04/18 05:27:31;;;;;;;55.55;30.75;;;5.60;99.90;;;;;;4995288;28;20061;-74
2023/04/18 05:29:58;;;;;;;54.05;29.80;;;5.60;99.90;;;;;;4998710;28;20060;-73
2023/04/18 05:32:24;;;;;;;49.55;28.92;;;5.60;99.90;;;;;;4998916;28;20044;-73
2023/04/18 05:34:51;;;;;;;48.22;26.58;;;5.50;99.90;;;;;;4995751;28;20146;-73
2023/04/18 05:37:18;;;;;;;51.83;28.52;;;5.50;99.90;;;;;;4994608;28;20145;-74
2023/04/18 05:39:45;;;;;;;60.85;30.85;;;5.50;99.90;;;;;;4991653;28;20057;-73
2023/04/18 05:42:11;;;;;;;56.10;31.60;;;5.50;99.90;;;;;;4993038;28;20522;-73
2023/04/18 05:44:38;;;;;;;58.15;30.45;;;5.50;99.90;;;;;;4992794;28;20060;-73
2023/04/18 05:47:05;;;;;;;57.75;30.65;;;5.50;99.90;;;;;;4994477;28;20046;-73
2023/04/18 05:49:32;;;;;;;55.42;30.10;;;5.50;99.90;;;;;;4994133;28;20049;-74
2023/04/18 05:51:59;;;;;;;57.78;31.50;;;5.60;99.90;;;;;;4990967;28;20046;-73
2023/04/18 05:54:26;;;;;;;60.15;30.42;;;5.60;99.90;;;;;;4997466;28;20054;-73
2023/04/18 05:56:54;;;;;;;64.35;31.52;;;5.60;99.90;;;;;;4995736;28;20054;-74
2023/04/18 05:59:20;;;;;;;59.08;31.83;;;5.60;99.90;;;;;;4992592;28;20046;-72
2023/04/18 06:01:48;;;;;;;38.90;22.55;;;5.60;99.90;;;;;;4995384;28;20346;-73
2023/04/18 06:04:15;;;;;;;55.75;24.85;;;5.60;99.90;;;;;;4993195;28;20058;-74
2023/04/18 06:06:42;;;;;;;63.88;33.63;;;5.50;99.90;;;;;;5026555;23;20234;-75
2023/04/18 06:09:09;;;;;;;63.17;28.63;;;5.50;99.90;;;;;;4993852;28;20619;-75
2023/04/18 06:11:36;;;;;;;61.38;30.67;;;5.50;99.90;;;;;;5005731;28;20044;-76
2023/04/18 06:14:02;;;;;;;70.85;29.65;;;5.50;99.90;;;;;;4996837;28;20133;-75
2023/04/18 06:16:29;;;;;;;62.38;31.25;;;5.50;99.90;;;;;;4988466;28;20099;-76
2023/04/18 06:18:56;;;;;;;60.58;30.38;;;5.50;99.90;;;;;;4983368;28;20136;-76
2023/04/18 06:21:26;;;;;;;66.03;33.97;;;5.50;99.90;;;;;;4997695;28;20050;-76
2023/04/18 06:23:53;;;;;;;67.30;33.72;;;5.50;99.90;;;;;;4988186;28;20100;-76
2023/04/18 06:26:20;;;;;;;61.17;29.38;;;5.50;99.90;;;;;;4994734;28;20041;-77
2023/04/18 06:28:47;;;;;;;72.45;33.72;;;5.50;99.90;;;;;;4998678;28;20051;-77
2023/04/18 06:31:13;;;;;;;67.13;32.67;;;5.50;99.90;;;;;;4989478;28;20042;-77
2023/04/18 06:33:40;;;;;;;71.68;34.17;;;5.50;99.90;;;;;;5003340;28;20667;-77
2023/04/18 06:36:08;;;;;;;65.35;32.28;;;5.60;99.90;;;;;;5001896;28;20045;-77
2023/04/18 06:38:34;;;;;;;68.38;31.40;;;5.60;99.90;;;;;;5007904;28;20407;-76
2023/04/18 06:41:01;;;;;;;64.35;31.90;;;5.60;99.90;;;;;;5001572;28;20062;-74
2023/04/18 06:43:28;;;;;;;65.80;30.48;;;5.60;99.90;;;;;;4988665;28;20077;-76
2023/04/18 06:45:55;;;;;;;61.25;31.02;;;5.70;99.90;;;;;;5004540;28;20038;-76
2023/04/18 06:48:22;;;;;;;59.28;30.48;;;5.70;99.90;;;;;;5004631;28;20049;-75
2023/04/18 06:50:49;;;;;;;61.28;31.92;;;5.80;99.90;;;;;;5003678;28;20038;-75
2023/04/18 06:53:16;;;;;;;61.78;33.50;;;5.70;99.90;;;;;;5011941;28;20042;-78
2023/04/18 06:55:42;;;;;;;65.70;32.80;;;5.80;99.90;;;;;;4985760;28;20215;-74
2023/04/18 06:58:12;;;;;;;65.65;33.83;;;5.90;99.90;;;;;;4988166;28;20049;-76
2023/04/18 07:00:39;;;;;;;60.88;32.75;;;5.90;99.90;;;;;;4997304;22;20050;-74
2023/04/18 07:03:08;;;;;;;52.83;26.60;;;5.90;99.90;;;;;;4980370;28;20261;-74
2023/04/18 07:05:38;;;;;;;58.30;32.53;;;6.00;99.90;;;;;;4973875;28;20034;-74
2023/04/18 07:08:05;;;;;;;67.30;32.15;;;6.00;99.90;;;;;;4976998;28;20042;-75
2023/04/18 07:10:31;;;;;;;60.40;33.38;;;6.00;99.90;;;;;;4982660;28;20046;-75
2023/04/18 07:12:58;;;;;;;68.65;31.83;;;6.00;99.90;;;;;;4973452;28;20054;-74
2023/04/18 07:15:25;;;;;;;67.47;35.88;;;6.00;99.90;;;;;;4974233;28;20153;-75
2023/04/18 07:17:52;;;;;;;65.28;34.50;;;6.10;99.90;;;;;;4979984;28;20046;-74
2023/04/18 07:20:19;;;;;;;59.45;31.95;;;6.00;99.90;;;;;;4970620;28;20125;-75
2023/04/18 07:22:48;;;;;;;59.42;31.60;;;6.10;99.90;;;;;;4984990;28;20038;-74
2023/04/18 07:25:14;;;;;;;61.60;32.80;;;6.00;99.90;;;;;;4973713;28;20074;-75
2023/04/18 07:27:41;;;;;;;66.15;33.78;;;6.10;99.90;;;;;;4980669;28;20050;-74
2023/04/18 07:30:09;;;;;;;56.72;32.10;;;6.10;99.90;;;;;;4977849;28;20057;-74
2023/04/18 07:32:35;;;;;;;55.67;32.60;;;6.10;99.90;;;;;;4985341;28;20038;-74
2023/04/18 07:35:02;;;;;;;56.72;33.15;;;6.30;99.90;;;;;;4979530;28;20046;-74
2023/04/18 07:37:30;;;;;;;54.95;31.40;;;6.30;99.90;;;;;;4987091;28;20050;-74
2023/04/18 07:39:57;;;;;;;63.13;34.78;;;6.30;99.90;;;;;;4979616;28;20050;-74
2023/04/18 07:42:24;;;;;;;47.38;28.55;;;6.40;99.90;;;;;;4981390;28;20056;-74
2023/04/18 07:44:57;;;;;;;57.47;34.65;;;6.40;99.90;;;;;;4983176;28;20033;-75
2023/04/18 07:47:26;;;;;;;58.75;33.65;;;6.30;99.90;;;;;;4981331;28;20105;-74
2023/04/18 07:49:55;;;;;;;57.65;31.17;;;6.40;99.90;;;;;;4980477;28;20150;-74
2023/04/18 07:52:22;;;;;;;51.28;33.03;;;6.50;99.90;;;;;;4981510;28;20049;-74
2023/04/18 07:54:49;;;;;;;56.47;32.95;;;6.40;99.90;;;;;;4987621;28;20066;-74
2023/04/18 07:57:15;;;;;;;56.58;33.10;;;6.50;99.90;;;;;;4978658;28;20123;-74
2023/04/18 07:59:42;;;;;;;59.72;34.00;;;6.60;99.90;;;;;;4985824;28;20565;-74
2023/04/18 08:02:09;;;;;;;66.90;34.78;;;6.70;99.90;;;;;;4976330;28;20056;-74
2023/04/18 08:04:36;;;;;;;59.50;36.00;;;6.70;99.90;;;;;;4983153;28;20070;-74
2023/04/18 08:07:03;;;;;;;61.42;36.53;;;6.70;99.90;;;;;;4986053;28;20045;-75
2023/04/18 08:09:29;;;;;;;64.07;38.33;;;6.70;99.90;;;;;;4982092;28;20042;-74
2023/04/18 08:11:58;;;;;;;59.92;36.42;;;6.80;99.90;;;;;;4982912;28;20049;-75
2023/04/18 08:14:24;;;;;;;58.17;34.88;;;6.90;99.90;;;;;;4977864;28;21201;-74
2023/04/18 08:16:51;;;;;;;53.90;36.35;;;6.90;99.90;;;;;;4985631;28;20041;-74
2023/04/18 08:19:18;;;;;;;57.45;37.08;;;7.00;99.90;;;;;;4975620;28;20058;-74
2023/04/18 08:21:44;;;;;;;57.78;35.45;;;7.20;99.90;;;;;;4987839;28;20125;-74
2023/04/18 08:24:11;;;;;;;54.97;37.40;;;7.30;99.90;;;;;;4975100;28;20642;-74
2023/04/18 08:26:38;;;;;;;44.08;28.65;;;7.20;99.90;;;;;;4974248;28;20117;-74
2023/04/18 08:29:05;;;;;;;44.00;30.38;;;7.20;99.90;;;;;;4976951;28;20277;-74
2023/04/18 08:31:31;;;;;;;54.35;34.70;;;7.30;99.90;;;;;;4958313;28;20038;-74
2023/04/18 08:33:59;;;;;;;55.45;37.58;;;7.20;99.90;;;;;;4979651;28;20137;-74
2023/04/18 08:36:26;;;;;;;56.63;36.92;;;7.40;99.90;;;;;;4998154;28;20066;-74
2023/04/18 08:38:53;;;;;;;51.65;36.63;;;7.40;99.90;;;;;;4978168;28;20053;-74
2023/04/18 08:41:22;;;;;;;57.70;39.63;;;7.40;99.90;;;;;;4972512;28;20054;-74
2023/04/18 08:43:49;;;;;;;60.92;40.45;;;7.30;99.90;;;;;;4977881;28;20045;-74
2023/04/18 08:46:16;;;;;;;56.53;39.10;;;7.40;99.90;;;;;;4981805;28;20060;-74
2023/04/18 08:48:43;;;;;;;54.58;40.08;;;7.40;99.90;;;;;;4983557;28;20467;-74
2023/04/18 08:51:10;;;;;;;56.25;40.13;;;7.50;99.90;;;;;;4980474;28;20046;-74
2023/04/18 08:53:38;;;;;;;51.25;36.90;;;7.40;99.90;;;;;;4979797;28;20117;-74
2023/04/18 08:56:09;;;;;;;55.60;39.55;;;7.30;99.90;;;;;;4977099;28;20467;-74
2023/04/18 08:58:36;;;;;;;57.90;37.47;;;7.10;99.90;;;;;;4978570;28;20066;-74
2023/04/18 09:01:02;;;;;;;52.72;34.55;;;7.30;99.90;;;;;;4982453;28;20047;-74
2023/04/18 09:03:38;;;;;;;53.28;36.10;;;7.30;99.90;;;;;;4988891;28;20043;-74
2023/04/18 09:06:14;;;;;;;59.88;39.67;;;7.30;99.90;;;;;;4980363;28;20042;-75
2023/04/18 09:08:42;;;;;;;55.83;39.25;;;7.50;99.90;;;;;;4988289;28;20318;-74
2023/04/18 09:11:30;;;;;;;51.58;35.42;;;7.80;99.90;;;;;;4982372;28;20042;-74
2023/04/18 09:14:01;;;;;;;47.92;34.97;;;7.80;99.90;;;;;;4981217;28;20058;-74
2023/04/18 09:16:43;;;;;;;50.75;37.10;;;7.70;99.90;;;;;;4980446;28;20048;-74
2023/04/18 09:19:12;;;;;;;49.58;36.92;;;7.50;99.90;;;;;;4985372;28;20049;-74
2023/04/18 09:21:43;;;;;;;49.90;36.05;;;7.40;99.90;;;;;;4982318;28;20121;-74
2023/04/18 09:24:31;;;;;;;47.03;35.75;;;7.30;99.90;;;;;;4979941;28;20559;-74
2023/04/18 09:27:00;;;;;;;48.53;34.65;;;7.30;99.90;;;;;;4979319;28;20042;-74
2023/04/18 09:29:45;;;;;;;51.33;37.10;;;7.40;99.90;;;;;;4978554;28;20046;-74
2023/04/18 09:32:28;;;;;;;51.75;35.42;;;7.40;99.90;;;;;;4980993;28;20070;-74
2023/04/18 09:35:00;;;;;;;51.50;36.80;;;7.50;99.90;;;;;;4982249;28;20132;-74
2023/04/18 09:37:30;;;;;;;44.60;35.15;;;7.60;99.90;;;;;;4979310;28;20047;-75
2023/04/18 09:39:57;;;;;;;49.70;35.53;;;7.80;99.90;;;;;;4986445;28;20133;-74
2023/04/18 09:42:24;;;;;;;48.45;36.03;;;7.90;99.90;;;;;;4983504;28;20054;-74
2023/04/18 09:45:06;;;;;;;48.05;35.95;;;7.90;99.90;;;;;;4996440;28;20037;-75
2023/04/18 09:47:35;;;;;;;44.70;36.85;;;8.10;99.90;;;;;;4985412;28;20046;-75
2023/04/18 09:50:07;;;;;;;44.95;38.85;;;8.20;99.90;;;;;;5011098;28;20045;-74
2023/04/18 09:52:36;;;;;;;43.03;37.10;;;8.20;99.90;;;;;;4986306;28;20149;-76
2023/04/18 09:55:06;;;;;;;42.42;35.47;;;8.50;99.90;;;;;;4988016;28;20080;-74
2023/04/18 09:57:34;;;;;;;41.08;36.72;;;8.80;99.90;;;;;;4980645;28;20125;-75
2023/04/18 10:00:23;;;;;;;41.28;36.75;;;8.80;99.90;;;;;;4990097;28;20052;-73
2023/04/18 10:03:03;;;;;;;42.40;37.80;;;9.00;99.90;;;;;;5001114;28;20400;-73
2023/04/18 10:05:32;;;;;;;42.55;37.28;;;8.70;99.90;;;;;;4990332;28;20050;-73
2023/04/18 10:07:59;;;;;;;49.55;41.78;;;8.80;99.90;;;;;;4995251;28;20038;-73
2023/04/18 10:10:26;;;;;;;44.53;40.00;;;8.80;99.90;;;;;;4977721;28;20141;-73
2023/04/18 10:12:55;;;;;;;39.50;35.35;;;8.80;99.90;;;;;;4981193;28;20058;-73
2023/04/18 10:15:25;;;;;;;43.80;39.15;;;9.00;99.90;;;;;;4961534;28;20049;-73
2023/04/18 10:18:00;;;;;;;41.53;37.17;;;8.90;99.90;;;;;;4989528;28;20419;-73
2023/04/18 10:20:33;;;;;;;44.58;39.17;;;8.90;99.90;;;;;;4972423;28;20042;-73
2023/04/18 10:23:36;;;;;;;44.30;39.28;;;8.90;99.90;;;;;;4987198;28;20140;-74
2023/04/18 10:26:04;;;;;;;42.92;38.50;;;9.00;99.90;;;;;;4983094;28;20046;-73
2023/04/18 10:28:53;;;;;;;41.95;37.65;;;9.00;99.90;;;;;;5000571;28;20053;-74
2023/04/18 10:31:22;;;;;;;42.08;37.85;;;9.40;99.90;;;;;;4978194;28;20508;-74
2023/04/18 10:33:56;;;;;;;35.45;32.13;;;9.50;99.90;;;;;;4984337;28;20135;-73
2023/04/18 10:36:27;;;;;;;40.90;36.20;;;9.70;99.90;;;;;;4994822;28;20058;-74
2023/04/18 10:38:59;;;;;;;41.58;36.97;;;9.50;99.90;;;;;;4980863;28;20645;-74
2023/04/18 10:41:28;;;;;;;41.50;37.42;;;9.70;99.90;;;;;;4982908;28;20074;-74
2023/04/18 10:44:23;;;;;;;40.40;36.83;;;10.10;99.90;;;;;;4985365;28;20050;-74
2023/04/18 10:46:50;;;;;;;42.93;38.87;;;10.50;99.90;;;;;;4979462;28;20459;-75
2023/04/18 10:49:24;;;;;;;40.28;36.65;;;10.70;99.90;;;;;;4983450;28;20356;-74
2023/04/18 10:51:57;;;;;;;46.30;42.30;;;10.70;99.90;;;;;;4974958;28;20373;-74
2023/04/18 10:54:51;;;;;;;41.03;37.20;;;10.70;99.90;;;;;;4978869;28;20789;-75
2023/04/18 10:57:17;;;;;;;44.30;40.28;;;11.10;99.90;;;;;;4974454;28;20419;-74
2023/04/18 10:59:48;;;;;;;39.95;36.20;;;11.40;99.90;;;;;;4985549;28;20053;-73
2023/04/18 11:02:31;;;;;;;40.13;36.33;;;11.50;99.90;;;;;;4995105;28;20046;-73
2023/04/18 11:04:59;;;;;;;40.60;36.95;;;11.40;99.90;;;;;;4998454;28;20038;-74
2023/04/18 11:07:32;;;;;;;40.00;36.30;;;11.60;99.90;;;;;;4984431;28;20042;-74
2023/04/18 11:10:00;;;;;;;41.47;37.70;;;12.00;99.90;;;;;;4995848;28;20045;-73
2023/04/18 11:12:31;;;;;;;44.45;40.35;;;11.20;99.90;;;;;;4987388;28;20269;-73
2023/04/18 11:15:01;;;;;;;46.05;41.58;;;10.80;99.90;;;;;;4989902;28;20607;-73
2023/04/18 11:17:34;;;;;;;47.45;43.58;;;11.00;99.90;;;;;;4986363;28;20140;-73
2023/04/18 11:20:15;;;;;;;41.97;38.10;;;11.20;99.90;;;;;;4979148;28;20128;-73
2023/04/18 11:22:47;;;;;;;45.97;41.88;;;10.90;99.90;;;;;;4989523;28;20614;-74
2023/04/18 11:25:15;;;;;;;41.90;38.08;;;11.10;99.90;;;;;;4986222;28;20435;-73
2023/04/18 11:27:45;;;;;;;43.08;39.15;;;11.60;99.90;;;;;;4961814;28;20057;-74
2023/04/18 11:30:12;;;;;;;43.97;39.97;;;11.70;99.90;;;;;;4976575;28;20262;-74
2023/04/18 11:32:39;;;;;;;48.13;43.80;;;11.70;99.90;;;;;;4978176;28;20508;-74
2023/04/18 11:35:11;;;;;;;47.58;43.25;;;11.80;99.90;;;;;;5003024;28;20049;-74
2023/04/18 11:37:39;;;;;;;45.97;42.00;;;11.20;99.90;;;;;;4978096;28;20104;-76
2023/04/18 11:40:10;;;;;;;49.38;44.55;;;10.90;99.90;;;;;;4986749;28;20073;-74
2023/04/18 11:42:38;;;;;;;46.17;41.95;;;10.70;99.90;;;;;;4980275;28;20073;-74
2023/04/18 11:45:09;;;;;;;47.88;43.67;;;10.90;99.90;;;;;;4992389;28;20054;-74
2023/04/18 11:47:35;;;;;;;50.35;45.83;;;10.50;99.90;;;;;;4975351;28;20515;-73
2023/04/18 11:50:05;;;;;;;46.45;42.15;;;10.30;99.90;;;;;;5000711;28;20078;-74
2023/04/18 11:52:34;;;;;;;44.92;40.83;;;10.20;99.90;;;;;;4983289;28;20038;-74
2023/04/18 11:55:20;;;;;;;49.72;45.30;;;10.10;99.90;;;;;;4986912;28;20046;-74
2023/04/18 11:57:55;;;;;;;48.53;44.22;;;10.10;99.90;;;;;;4997851;28;20230;-73
2023/04/18 12:00:36;;;;;;;50.88;46.85;;;10.30;99.90;;;;;;4983942;28;20053;-75
2023/04/18 12:03:14;;;;;;;47.80;43.63;;;10.60;99.90;;;;;;5005279;28;20104;-74
2023/04/18 12:05:41;;;;;;;46.47;42.28;;;11.10;99.90;;;;;;4984535;28;20255;-73
2023/04/18 12:08:10;;;;;;;45.78;41.75;;;10.40;99.90;;;;;;4983967;28;20268;-74
2023/04/18 12:10:45;;;;;;;47.20;43.13;;;10.30;99.90;;;;;;5010743;28;20054;-74
2023/04/18 12:13:11;;;;;;;49.45;45.03;;;10.40;99.90;;;;;;4987298;28;20137;-74
2023/04/18 12:15:42;;;;;;;52.53;47.15;;;10.50;99.90;;;;;;4989258;28;20386;-75
2023/04/18 12:18:10;;;;;;;46.90;42.90;;;10.70;99.90;;;;;;4992923;28;20050;-74
2023/04/18 12:20:38;;;;;;;47.67;43.38;;;11.20;99.90;;;;;;4995447;28;20068;-74
2023/04/18 12:23:06;;;;;;;46.13;42.17;;;11.20;99.90;;;;;;4975916;28;20046;-75
2023/04/18 12:25:33;;;;;;;46.83;42.70;;;11.30;99.90;;;;;;4989944;28;20061;-74
2023/04/18 12:28:14;;;;;;;46.28;42.17;;;11.20;99.90;;;;;;4983159;28;20042;-75
2023/04/18 12:30:41;;;;;;;45.75;41.85;;;10.90;99.90;;;;;;4984479;28;20046;-74
2023/04/18 12:33:08;;;;;;;48.03;43.70;;;10.60;99.90;;;;;;4986954;28;20305;-75
2023/04/18 12:35:35;;;;;;;48.40;44.20;;;10.60;99.90;;;;;;4988106;28;20042;-75
2023/04/18 12:38:03;;;;;;;47.10;43.22;;;10.70;99.90;;;;;;4979407;28;20050;-75
2023/04/18 12:40:30;;;;;;;46.10;42.03;;;11.00;99.90;;;;;;4978383;28;20058;-74
2023/04/18 12:42:56;;;;;;;48.20;44.30;;;11.10;99.90;;;;;;4985386;28;20073;-74
2023/04/18 12:45:24;;;;;;;45.30;41.58;;;11.10;99.90;;;;;;4987769;28;20053;-73